Main page
METAR-TAF:

METAR-TAF

Airports :

Colville Lake/Tommy Kochon Aerodrome

Colville Lake, Northwest Territories, Canada

latitude: 67-01-16N, longitude: 126-07-43W, elevation: 274 m

Current weather observation

The report was made 1 hour and 10 minutes ago, at 08:00 UTC
Wind 6 kt from the West/Southwest
Temperature -1°C
Humidity 69%
Pressure 996 hPa
Visibility: 14.5 km
Scattered clouds at a height of 5000 ft
Broken clouds at a height of 7100 ft

METAR: CYVL 130800Z AUTO 24006KT 9SM SCT050 BKN071 M01/M06 A2942 RMK SLP983

Time: 03:10 (09:10 UTC)


TAF: missing

Weather observations and forecasts of more than 4000 airports (METAR and TAF reports).

The available stations are represented by yellow and red dots on the map.

Hover mouse over dot to see the name of the station.

Then click to see weather observations and forecasts.

To change the map : click on the green buttons with a black cross to zoom in, on the green button with a dash to zoom out, or on the green arrows for adjacent maps.


METAR-TAF: